Time;durP1;ratioP1;P1;durP2;ratioP2;P2;SDS_P1;SDS_P2;PMS_P1;PMS_P2;Temp;Humidity;BMP_temperature;BMP_pressure;BME280_temperature;BME280_humidity;BME280_pressure;Samples;Min_cycle;Max_cycle;Signal;HPM_P1;HPM_P2
2020/12/06 00:01:25;;;;;;;21.27;15.30;;;3.90;99.90;;;;;;5041383;28;20417;-83
2020/12/06 00:03:51;;;;;;;21.33;14.70;;;4.00;99.90;;;;;;5034837;28;20432;-84
2020/12/06 00:06:21;;;;;;;21.97;15.90;;;4.00;99.90;;;;;;5032717;28;20220;-82
2020/12/06 00:08:50;;;;;;;24.87;16.87;;;3.90;99.90;;;;;;5030473;28;20559;-88
2020/12/06 00:11:17;;;;;;;20.73;15.40;;;3.90;99.90;;;;;;5032613;28;20421;-83
2020/12/06 00:13:43;;;;;;;27.67;16.43;;;3.90;99.90;;;;;;5027827;28;20470;-83
2020/12/06 00:16:26;;;;;;;22.40;14.90;;;4.00;99.90;;;;;;5011611;28;20437;-84
2020/12/06 00:18:52;;;;;;;20.70;15.00;;;4.00;99.90;;;;;;5012855;28;20417;-84
2020/12/06 00:21:19;;;;;;;27.20;15.80;;;4.00;99.90;;;;;;5013822;28;20409;-88
2020/12/06 00:23:45;;;;;;;24.57;16.10;;;4.00;99.90;;;;;;5016692;28;20578;-86
2020/12/06 00:26:12;;;;;;;24.70;15.03;;;3.90;99.90;;;;;;5016996;28;20463;-87
2020/12/06 00:28:38;;;;;;;26.70;17.37;;;3.80;99.90;;;;;;5016911;28;20465;-87
2020/12/06 00:31:04;;;;;;;30.67;17.60;;;3.80;99.90;;;;;;5015701;28;20435;-87
2020/12/06 00:33:30;;;;;;;25.23;16.70;;;3.80;99.90;;;;;;5015681;28;20266;-86
2020/12/06 00:35:56;;;;;;;22.93;17.70;;;3.90;99.90;;;;;;5016695;28;20438;-87
2020/12/06 00:38:21;;;;;;;22.10;15.57;;;3.80;99.90;;;;;;5016165;28;20441;-86
2020/12/06 00:40:47;;;;;;;28.13;17.23;;;3.80;99.90;;;;;;5016559;28;20820;-87
2020/12/06 00:43:12;;;;;;;24.43;16.57;;;3.90;99.90;;;;;;5015542;28;20171;-87
2020/12/06 00:45:38;;;;;;;21.17;16.20;;;3.80;99.90;;;;;;5016472;28;20175;-88
2020/12/06 00:48:04;;;;;;;22.43;15.23;;;3.90;99.90;;;;;;5016343;28;20179;-88
2020/12/06 00:50:29;;;;;;;21.87;15.37;;;3.90;99.90;;;;;;5015788;28;20175;-87
2020/12/06 00:52:55;;;;;;;29.33;18.77;;;4.00;99.90;;;;;;5016322;28;20170;-87
2020/12/06 00:55:20;;;;;;;23.83;16.73;;;4.00;99.90;;;;;;5016771;28;20205;-87
2020/12/06 00:57:46;;;;;;;26.00;18.10;;;4.00;99.90;;;;;;5016545;28;20531;-87
2020/12/06 01:00:12;;;;;;;25.30;16.87;;;4.00;99.90;;;;;;5016361;28;20166;-87
2020/12/06 01:02:38;;;;;;;23.40;17.37;;;4.00;99.90;;;;;;5016357;28;20175;-87
2020/12/06 01:05:06;;;;;;;21.73;14.77;;;4.00;99.90;;;;;;5015281;28;20948;-87
2020/12/06 01:07:41;;;;;;;28.73;17.03;;;3.90;99.90;;;;;;5015969;28;20497;-87
2020/12/06 01:10:09;;;;;;;27.10;18.53;;;3.90;99.90;;;;;;5016408;28;20590;-87
2020/12/06 01:12:35;;;;;;;26.23;17.10;;;4.00;99.90;;;;;;5016452;28;20410;-87
2020/12/06 01:15:03;;;;;;;24.87;15.97;;;4.00;99.90;;;;;;5034590;28;20453;-87
2020/12/06 01:17:28;;;;;;;25.50;17.80;;;4.00;99.90;;;;;;5035011;28;20421;-87
2020/12/06 01:19:54;;;;;;;28.20;18.70;;;4.10;99.90;;;;;;5034945;28;20456;-88
2020/12/06 01:22:20;;;;;;;23.83;16.13;;;4.10;99.90;;;;;;5039486;28;20173;-87
2020/12/06 01:24:45;;;;;;;25.03;16.50;;;4.10;99.90;;;;;;5048075;28;20184;-87
2020/12/06 01:27:11;;;;;;;24.37;15.93;;;4.10;99.90;;;;;;5041886;28;20166;-87
2020/12/06 01:29:36;;;;;;;26.77;16.57;;;4.20;99.90;;;;;;5043988;28;20201;-87
2020/12/06 01:32:02;;;;;;;22.70;14.63;;;4.20;99.90;;;;;;5044623;28;20170;-87
2020/12/06 01:34:28;;;;;;;25.93;16.83;;;4.20;99.90;;;;;;5046491;28;20177;-87
2020/12/06 01:36:53;;;;;;;25.53;17.77;;;4.20;99.90;;;;;;5044883;28;20188;-84
2020/12/06 01:39:19;;;;;;;25.20;16.77;;;4.10;99.90;;;;;;5045473;28;20162;-84
2020/12/06 01:41:45;;;;;;;26.43;16.87;;;4.00;99.90;;;;;;5044531;28;20710;-87
2020/12/06 01:44:11;;;;;;;20.80;16.73;;;4.10;99.90;;;;;;5044804;28;20429;-86
2020/12/06 01:46:38;;;;;;;23.70;16.57;;;4.10;99.90;;;;;;5044264;28;20180;-85
2020/12/06 01:49:08;;;;;;;27.23;16.87;;;4.10;99.90;;;;;;5043379;28;20761;-84
2020/12/06 01:51:34;;;;;;;23.73;15.23;;;4.20;99.90;;;;;;5040659;28;20432;-84
2020/12/06 01:54:02;;;;;;;23.17;16.00;;;4.20;99.90;;;;;;5043746;28;20426;-83
2020/12/06 01:56:27;;;;;;;27.07;19.00;;;4.20;99.90;;;;;;5040823;28;20848;-83
2020/12/06 01:58:53;;;;;;;25.20;17.03;;;4.10;99.90;;;;;;5040618;28;20417;-85
2020/12/06 02:01:18;;;;;;;24.17;15.77;;;4.10;99.90;;;;;;5043161;28;20170;-83
2020/12/06 02:03:44;;;;;;;28.47;16.80;;;4.10;99.90;;;;;;5046745;28;20236;-83
2020/12/06 02:06:10;;;;;;;30.03;16.97;;;4.00;99.90;;;;;;5043608;28;20198;-87
2020/12/06 02:08:36;;;;;;;26.67;16.53;;;4.00;99.90;;;;;;5039890;28;20968;-86
2020/12/06 02:11:03;;;;;;;29.37;17.03;;;4.00;99.90;;;;;;5034659;28;20173;-85
2020/12/06 02:13:29;;;;;;;26.40;15.67;;;4.00;99.90;;;;;;5035938;28;20253;-86
2020/12/06 02:15:55;;;;;;;26.30;16.93;;;4.10;99.90;;;;;;5054364;28;20918;-87
2020/12/06 02:18:21;;;;;;;26.30;16.90;;;4.10;99.90;;;;;;5036361;28;20438;-87
2020/12/06 02:20:47;;;;;;;28.27;17.17;;;4.10;99.90;;;;;;5054316;28;20165;-87
2020/12/06 02:23:13;;;;;;;23.80;16.20;;;4.10;99.90;;;;;;5053778;28;20412;-84
2020/12/06 02:25:39;;;;;;;24.03;15.63;;;4.20;99.90;;;;;;5054156;28;20445;-87
2020/12/06 02:28:06;;;;;;;21.23;15.97;;;4.20;99.90;;;;;;5053859;28;20343;-88
2020/12/06 02:30:33;;;;;;;22.20;14.80;;;4.20;99.90;;;;;;5054018;28;20419;-85
2020/12/06 02:33:00;;;;;;;24.17;15.17;;;4.30;99.90;;;;;;5054128;28;20480;-87
2020/12/06 02:35:26;;;;;;;23.50;15.33;;;4.30;99.90;;;;;;5034189;28;20413;-87
2020/12/06 02:37:52;;;;;;;28.40;16.90;;;4.30;99.90;;;;;;5033671;28;20414;-86
2020/12/06 02:40:17;;;;;;;23.53;14.70;;;4.30;99.90;;;;;;5034171;28;20166;-87
2020/12/06 02:42:43;;;;;;;24.30;15.73;;;4.30;99.90;;;;;;5033952;28;20674;-88
2020/12/06 02:45:08;;;;;;;26.40;18.03;;;4.30;99.90;;;;;;5015614;28;20175;-88
2020/12/06 02:47:34;;;;;;;26.73;15.87;;;4.20;99.90;;;;;;5033933;28;20759;-87
2020/12/06 02:50:00;;;;;;;27.27;16.67;;;4.20;99.90;;;;;;5033912;28;20233;-87
2020/12/06 02:52:25;;;;;;;28.30;17.63;;;4.20;99.90;;;;;;5017055;28;20213;-87
2020/12/06 02:54:51;;;;;;;27.10;17.37;;;4.20;99.90;;;;;;5033822;28;20174;-87
2020/12/06 02:57:16;;;;;;;28.77;18.47;;;4.20;99.90;;;;;;5033717;28;20175;-84
2020/12/06 02:59:42;;;;;;;24.97;17.33;;;4.20;99.90;;;;;;5033469;28;20205;-87
2020/12/06 03:02:08;;;;;;;26.87;16.63;;;4.20;99.90;;;;;;5033584;28;20210;-85
2020/12/06 03:04:33;;;;;;;25.20;17.27;;;4.20;99.90;;;;;;5033576;28;20659;-85
2020/12/06 03:06:59;;;;;;;22.63;16.90;;;4.20;99.90;;;;;;5015535;28;20181;-85
2020/12/06 03:09:24;;;;;;;23.37;15.90;;;4.20;99.90;;;;;;5033392;28;20213;-85
2020/12/06 03:11:50;;;;;;;26.87;16.73;;;4.20;99.90;;;;;;5015640;28;20260;-85
2020/12/06 03:14:16;;;;;;;28.33;16.37;;;4.30;99.90;;;;;;5033206;28;20222;-86
2020/12/06 03:16:42;;;;;;;24.50;16.93;;;4.30;99.90;;;;;;5033467;28;20599;-86
2020/12/06 03:19:07;;;;;;;22.20;15.80;;;4.40;99.90;;;;;;5033284;28;20771;-86
2020/12/06 03:21:33;;;;;;;27.43;17.40;;;4.40;99.90;;;;;;5032939;28;20175;-86
2020/12/06 03:23:58;;;;;;;31.27;17.13;;;4.40;99.90;;;;;;5033298;28;20167;-86
2020/12/06 03:26:24;;;;;;;26.60;18.30;;;4.40;99.90;;;;;;5033148;28;20236;-85
2020/12/06 03:28:50;;;;;;;28.57;16.77;;;4.50;99.90;;;;;;5015335;28;20214;-86
2020/12/06 03:31:15;;;;;;;26.93;18.17;;;4.50;99.90;;;;;;5033175;28;20692;-86
2020/12/06 03:33:41;;;;;;;26.37;17.50;;;4.60;99.90;;;;;;5033172;28;20224;-86
2020/12/06 03:36:06;;;;;;;23.00;16.20;;;4.60;99.90;;;;;;5032826;28;20182;-86
2020/12/06 03:38:32;;;;;;;22.77;15.80;;;4.70;99.90;;;;;;5033045;28;20201;-86
2020/12/06 03:40:58;;;;;;;23.27;16.57;;;4.70;99.90;;;;;;5033126;28;20182;-87
2020/12/06 03:43:23;;;;;;;24.60;15.53;;;4.70;99.90;;;;;;5015387;28;20181;-87
2020/12/06 03:45:49;;;;;;;23.20;14.40;;;4.80;99.90;;;;;;5033250;28;20653;-88
2020/12/06 03:48:15;;;;;;;24.30;16.20;;;4.80;99.90;;;;;;5039467;28;20178;-86
2020/12/06 03:50:40;;;;;;;25.53;16.27;;;4.80;99.90;;;;;;5053040;28;20256;-88
2020/12/06 03:53:06;;;;;;;28.37;18.97;;;4.80;99.90;;;;;;5052733;28;20587;-87
2020/12/06 03:55:31;;;;;;;28.03;17.50;;;4.80;99.90;;;;;;5054368;28;20181;-87
2020/12/06 03:57:57;;;;;;;25.63;15.70;;;4.80;99.90;;;;;;5056984;28;20649;-86
2020/12/06 04:00:23;;;;;;;28.67;18.07;;;4.80;99.90;;;;;;5056861;28;20169;-87
2020/12/06 04:02:50;;;;;;;26.80;17.27;;;4.80;99.90;;;;;;5056930;28;20250;-86
2020/12/06 04:05:20;;;;;;;25.87;16.77;;;4.80;99.90;;;;;;5055648;28;20633;-87
2020/12/06 04:07:46;;;;;;;24.73;17.90;;;4.80;99.90;;;;;;5056523;28;20412;-86
2020/12/06 04:10:12;;;;;;;28.47;19.50;;;4.80;99.90;;;;;;5056897;28;20884;-86
2020/12/06 04:12:38;;;;;;;24.87;17.60;;;4.80;99.90;;;;;;5056884;28;20448;-86
2020/12/06 04:15:03;;;;;;;23.67;17.17;;;4.80;99.90;;;;;;5056462;28;20467;-86
2020/12/06 04:17:29;;;;;;;24.40;16.50;;;4.70;99.90;;;;;;5056702;28;20166;-86
2020/12/06 04:19:54;;;;;;;24.93;15.70;;;4.70;99.90;;;;;;5056609;28;20178;-87
2020/12/06 04:22:20;;;;;;;22.73;16.33;;;4.70;99.90;;;;;;5056175;28;20180;-85
2020/12/06 04:24:46;;;;;;;26.73;16.80;;;4.70;99.90;;;;;;5055251;28;20185;-84
2020/12/06 04:27:11;;;;;;;25.83;15.97;;;4.70;99.90;;;;;;5056440;28;20348;-87
2020/12/06 04:29:37;;;;;;;24.70;17.20;;;4.80;99.90;;;;;;5056303;28;20216;-88
2020/12/06 04:32:02;;;;;;;26.03;16.10;;;4.80;99.90;;;;;;5056454;28;20219;-87
2020/12/06 04:34:28;;;;;;;26.97;16.17;;;4.80;99.90;;;;;;5056395;28;20216;-85
2020/12/06 04:36:53;;;;;;;26.33;17.57;;;4.80;99.90;;;;;;5055983;28;20181;-87
2020/12/06 04:39:19;;;;;;;30.80;19.13;;;4.90;99.90;;;;;;5056345;28;20174;-87
2020/12/06 04:41:44;;;;;;;27.23;17.03;;;4.90;99.90;;;;;;5056296;28;20176;-86
2020/12/06 04:44:10;;;;;;;27.40;18.47;;;4.90;99.90;;;;;;5056115;28;20169;-85
2020/12/06 04:46:37;;;;;;;24.27;17.23;;;4.90;99.90;;;;;;5056187;28;20173;-87
2020/12/06 04:49:24;;;;;;;31.17;17.90;;;4.90;99.90;;;;;;5038123;28;20220;-87
2020/12/06 04:51:56;;;;;;;27.53;17.90;;;5.00;99.90;;;;;;5055479;28;20407;-86
2020/12/06 04:54:31;;;;;;;26.97;18.30;;;5.00;99.90;;;;;;5055952;28;20836;-87
2020/12/06 04:57:02;;;;;;;25.97;17.57;;;5.00;99.90;;;;;;5055950;28;20399;-87
2020/12/06 04:59:28;;;;;;;33.00;19.60;;;5.00;99.90;;;;;;5055712;28;20404;-87
2020/12/06 05:01:57;;;;;;;29.47;19.13;;;5.00;99.90;;;;;;5054528;28;20413;-87
2020/12/06 05:04:25;;;;;;;28.50;18.20;;;5.00;99.90;;;;;;5055828;28;20196;-86
2020/12/06 05:06:53;;;;;;;25.93;18.23;;;5.00;99.90;;;;;;5054690;28;20736;-87
2020/12/06 05:09:21;;;;;;;29.53;19.17;;;5.00;99.90;;;;;;5055538;28;20459;-85
2020/12/06 05:11:47;;;;;;;26.27;17.50;;;5.00;99.90;;;;;;5055610;28;20936;-86
2020/12/06 05:14:12;;;;;;;28.10;18.50;;;4.90;99.90;;;;;;5054168;28;20467;-87
2020/12/06 05:16:39;;;;;;;23.93;18.13;;;5.00;99.90;;;;;;5055536;28;20196;-87
2020/12/06 05:19:09;;;;;;;30.77;18.80;;;5.00;99.90;;;;;;5055461;28;20693;-86
2020/12/06 05:21:37;;;;;;;31.70;18.07;;;5.00;99.90;;;;;;5053829;28;20455;-86
2020/12/06 05:24:03;;;;;;;28.17;17.90;;;4.90;99.90;;;;;;5054147;28;20416;-86
2020/12/06 05:26:30;;;;;;;27.30;18.70;;;4.90;99.90;;;;;;5055274;28;20416;-84
2020/12/06 05:28:57;;;;;;;28.83;19.13;;;5.00;99.90;;;;;;5055209;28;20512;-86
2020/12/06 05:31:23;;;;;;;33.17;20.37;;;5.00;99.90;;;;;;5055156;28;20423;-86
2020/12/06 05:33:49;;;;;;;26.43;18.20;;;5.00;99.90;;;;;;5055089;28;20416;-86
2020/12/06 05:36:15;;;;;;;26.50;17.73;;;5.00;99.90;;;;;;5054781;28;20420;-86
2020/12/06 05:38:41;;;;;;;31.23;18.20;;;5.00;99.90;;;;;;5055228;28;20431;-86
2020/12/06 05:41:09;;;;;;;33.17;20.10;;;4.90;99.90;;;;;;5055047;28;20185;-86
2020/12/06 05:43:35;;;;;;;28.33;17.43;;;4.90;99.90;;;;;;5053801;28;20203;-86
2020/12/06 05:46:09;;;;;;;31.20;19.10;;;4.90;99.90;;;;;;5054991;28;20416;-87
2020/12/06 05:48:35;;;;;;;30.63;20.13;;;5.00;99.90;;;;;;5036976;28;20987;-86
2020/12/06 05:51:02;;;;;;;28.77;18.90;;;5.00;99.90;;;;;;5054495;28;20499;-86
2020/12/06 05:53:29;;;;;;;27.33;19.57;;;5.10;99.90;;;;;;5037097;28;20411;-87
2020/12/06 05:56:11;;;;;;;29.03;18.23;;;5.10;99.90;;;;;;5055112;28;20758;-88
2020/12/06 05:58:40;;;;;;;28.40;19.80;;;5.10;99.90;;;;;;5054985;28;20410;-87
2020/12/06 06:01:06;;;;;;;26.73;17.80;;;5.10;99.90;;;;;;5054968;28;20762;-87
2020/12/06 06:03:35;;;;;;;29.03;17.20;;;5.10;99.90;;;;;;5054912;28;20412;-88
2020/12/06 06:06:07;;;;;;;30.60;19.13;;;5.20;99.90;;;;;;5054474;28;20450;-86
2020/12/06 06:08:38;;;;;;;33.27;18.40;;;5.20;99.90;;;;;;5054566;28;20448;-87
2020/12/06 06:11:26;;;;;;;28.60;18.80;;;5.20;99.90;;;;;;5036989;28;20508;-86
2020/12/06 06:14:02;;;;;;;31.07;17.70;;;5.20;99.90;;;;;;5054448;28;20460;-87
2020/12/06 06:16:30;;;;;;;31.10;18.67;;;5.30;99.90;;;;;;5054692;28;20408;-88
2020/12/06 06:18:57;;;;;;;30.53;18.53;;;5.30;99.90;;;;;;5044029;28;20432;-87
2020/12/06 06:21:27;;;;;;;29.20;19.10;;;5.30;99.90;;;;;;5054055;28;20495;-87
2020/12/06 06:23:54;;;;;;;30.60;20.17;;;5.30;99.90;;;;;;5054562;28;20411;-88
2020/12/06 06:26:24;;;;;;;28.43;18.03;;;5.30;99.90;;;;;;5056088;28;20428;-88
2020/12/06 06:28:52;;;;;;;27.17;17.17;;;5.40;99.90;;;;;;5055165;28;20533;-89
2020/12/06 06:31:19;;;;;;;32.30;19.33;;;5.40;99.90;;;;;;5054758;28;20938;-88
2020/12/06 06:33:46;;;;;;;28.43;18.10;;;5.40;99.90;;;;;;5054620;28;20907;-87
2020/12/06 06:36:12;;;;;;;29.23;18.73;;;5.50;99.90;;;;;;5054277;28;20416;-88
2020/12/06 06:38:44;;;;;;;28.60;18.63;;;5.50;99.90;;;;;;5054010;28;20473;-87
2020/12/06 06:41:10;;;;;;;33.10;18.97;;;5.50;99.90;;;;;;5054366;28;20173;-88
2020/12/06 06:43:37;;;;;;;29.77;19.70;;;5.50;99.90;;;;;;5054392;28;20393;-88
2020/12/06 06:46:14;;;;;;;30.23;20.53;;;5.60;99.90;;;;;;5053841;28;20416;-86
2020/12/06 06:48:40;;;;;;;31.23;19.27;;;5.60;99.90;;;;;;5053856;28;20459;-87
2020/12/06 06:51:07;;;;;;;35.77;19.80;;;5.70;99.90;;;;;;5053375;28;20415;-87
2020/12/06 06:53:33;;;;;;;30.03;17.57;;;5.70;99.90;;;;;;5053778;28;21159;-85
2020/12/06 06:56:00;;;;;;;27.73;18.57;;;5.70;99.90;;;;;;5053709;28;20408;-87
2020/12/06 06:58:32;;;;;;;31.47;18.93;;;5.70;99.90;;;;;;5053734;28;20421;-87
2020/12/06 07:01:15;;;;;;;29.10;17.93;;;5.70;99.90;;;;;;5053689;28;20408;-87
2020/12/06 07:03:54;;;;;;;28.23;19.07;;;5.70;99.90;;;;;;5053664;28;20405;-87
2020/12/06 07:06:45;;;;;;;27.67;17.30;;;5.80;99.90;;;;;;5053309;28;20490;-87
2020/12/06 07:09:12;;;;;;;27.10;17.00;;;5.80;99.90;;;;;;5033422;28;20799;-86
2020/12/06 07:11:39;;;;;;;28.57;18.67;;;5.90;99.90;;;;;;5033482;28;20877;-88
2020/12/06 07:14:05;;;;;;;24.57;16.97;;;5.90;99.90;;;;;;5033407;28;20461;-87
2020/12/06 07:16:31;;;;;;;27.00;18.63;;;5.90;99.90;;;;;;5033437;28;20405;-87
2020/12/06 07:18:56;;;;;;;28.80;18.63;;;5.90;99.90;;;;;;5033459;28;20417;-86
2020/12/06 07:21:22;;;;;;;29.30;19.67;;;5.90;99.90;;;;;;5033358;28;20500;-88
2020/12/06 07:23:49;;;;;;;27.90;17.47;;;5.90;99.90;;;;;;5033561;28;20174;-88
2020/12/06 07:26:14;;;;;;;30.20;18.17;;;5.90;99.90;;;;;;5016010;28;20201;-87
2020/12/06 07:28:40;;;;;;;29.77;18.43;;;5.90;99.90;;;;;;5032748;28;20984;-88
2020/12/06 07:31:09;;;;;;;32.07;19.13;;;5.90;99.90;;;;;;5032393;28;20170;-87
2020/12/06 07:33:34;;;;;;;30.53;18.27;;;6.00;99.90;;;;;;5033018;28;20752;-87
2020/12/06 07:36:00;;;;;;;25.30;17.57;;;6.00;99.90;;;;;;5032136;28;20501;-87
2020/12/06 07:38:25;;;;;;;32.90;18.90;;;6.10;99.90;;;;;;5032506;28;20174;-87
2020/12/06 07:41:09;;;;;;;26.00;16.40;;;6.10;99.90;;;;;;5032476;28;20209;-87
2020/12/06 07:43:35;;;;;;;29.37;18.17;;;6.10;99.90;;;;;;5032989;28;20166;-86
2020/12/06 07:46:17;;;;;;;33.90;21.63;;;6.10;99.90;;;;;;5032587;28;20540;-83
2020/12/06 07:48:43;;;;;;;49.23;31.47;;;6.10;99.90;;;;;;5032677;28;20205;-86
2020/12/06 07:51:09;;;;;;;35.73;25.43;;;6.10;99.90;;;;;;5031881;28;20488;-86
2020/12/06 07:53:53;;;;;;;33.23;22.10;;;6.10;99.90;;;;;;5032809;28;20427;-87
2020/12/06 07:56:23;;;;;;;27.40;20.87;;;6.10;99.90;;;;;;5032445;28;20254;-87
2020/12/06 07:59:14;;;;;;;34.07;22.10;;;6.10;99.90;;;;;;5032687;28;20421;-86
2020/12/06 08:01:42;;;;;;;30.77;17.63;;;6.10;99.90;;;;;;5046258;28;20815;-87
2020/12/06 08:04:11;;;;;;;33.13;19.30;;;6.20;99.90;;;;;;5052352;28;20794;-87
2020/12/06 08:06:38;;;;;;;26.97;19.47;;;6.20;99.90;;;;;;5051776;28;20443;-86
2020/12/06 08:09:06;;;;;;;42.00;32.10;;;6.20;99.90;;;;;;5052017;28;20464;-88
2020/12/06 08:11:43;;;;;;;29.47;18.87;;;6.30;99.90;;;;;;5052238;28;20408;-87
2020/12/06 08:14:09;;;;;;;28.17;17.80;;;6.30;99.90;;;;;;5052126;28;20546;-87
2020/12/06 08:16:35;;;;;;;26.40;16.07;;;6.40;99.90;;;;;;5045068;28;20417;-87
2020/12/06 08:19:02;;;;;;;30.67;18.47;;;6.40;99.90;;;;;;5035357;28;20419;-87
2020/12/06 08:21:43;;;;;;;30.07;17.93;;;6.50;99.90;;;;;;5034371;28;20169;-88
2020/12/06 08:24:24;;;;;;;31.00;19.50;;;6.50;99.90;;;;;;5047361;28;20408;-87
2020/12/06 08:26:51;;;;;;;32.37;20.60;;;6.60;99.90;;;;;;5051676;28;20807;-85
2020/12/06 08:29:18;;;;;;;23.17;17.03;;;6.60;99.90;;;;;;5051589;28;20521;-87
2020/12/06 08:31:45;;;;;;;25.17;20.13;;;6.60;99.90;;;;;;5051572;28;20428;-86
2020/12/06 08:34:13;;;;;;;26.13;17.23;;;6.60;99.90;;;;;;5051808;28;20995;-86
2020/12/06 08:36:39;;;;;;;27.97;18.67;;;6.60;99.90;;;;;;5054015;28;20812;-87
2020/12/06 08:39:19;;;;;;;30.00;19.50;;;6.70;99.90;;;;;;5055199;28;20538;-87
2020/12/06 08:41:45;;;;;;;41.07;27.30;;;6.80;99.90;;;;;;5055815;28;20553;-87
2020/12/06 08:44:11;;;;;;;30.07;19.00;;;6.80;99.90;;;;;;5057646;28;20806;-85
2020/12/06 08:46:37;;;;;;;35.57;20.70;;;6.80;99.90;;;;;;5055522;28;20784;-84
2020/12/06 08:49:15;;;;;;;29.30;19.37;;;6.90;99.90;;;;;;5056618;28;20479;-85
2020/12/06 08:51:48;;;;;;;32.90;19.53;;;6.90;99.90;;;;;;5055116;28;20169;-84
2020/12/06 08:54:13;;;;;;;33.67;19.73;;;6.90;99.90;;;;;;5055026;28;20428;-83
2020/12/06 08:56:41;;;;;;;25.57;18.37;;;6.80;99.90;;;;;;5055319;28;20427;-86
2020/12/06 08:59:14;;;;;;;27.23;17.10;;;6.80;99.90;;;;;;5055147;28;20280;-85
2020/12/06 09:01:56;;;;;;;25.70;17.50;;;6.80;99.90;;;;;;5055461;28;20422;-85
2020/12/06 09:04:22;;;;;;;27.90;18.93;;;6.90;99.90;;;;;;5055208;28;20416;-84
2020/12/06 09:06:48;;;;;;;25.07;16.23;;;6.90;99.90;;;;;;5036956;28;20967;-86
2020/12/06 09:09:15;;;;;;;32.40;19.30;;;6.90;99.90;;;;;;5055544;28;20506;-83
2020/12/06 09:11:41;;;;;;;32.70;19.67;;;6.90;99.90;;;;;;5037786;28;20850;-86
2020/12/06 09:14:07;;;;;;;28.13;18.17;;;6.90;99.90;;;;;;5055526;28;20498;-86
2020/12/06 09:16:32;;;;;;;31.33;18.37;;;6.90;99.90;;;;;;5055657;28;20637;-87
2020/12/06 09:18:58;;;;;;;28.73;17.90;;;6.90;99.90;;;;;;5055662;28;20194;-86
2020/12/06 09:21:24;;;;;;;24.43;17.73;;;7.00;99.90;;;;;;5055512;28;20174;-86
2020/12/06 09:23:50;;;;;;;28.90;16.80;;;7.00;99.90;;;;;;5055564;28;20172;-86
2020/12/06 09:26:15;;;;;;;31.63;18.90;;;7.10;99.90;;;;;;5055417;28;20412;-85
2020/12/06 09:28:41;;;;;;;35.30;20.67;;;7.10;99.90;;;;;;5055327;28;20228;-87
2020/12/06 09:31:07;;;;;;;54.60;42.20;;;7.00;99.90;;;;;;5055434;28;20166;-84
2020/12/06 09:33:33;;;;;;;56.67;36.87;;;7.10;99.90;;;;;;5055167;28;20632;-86
2020/12/06 09:35:58;;;;;;;28.73;19.93;;;7.10;99.90;;;;;;5055645;28;20184;-85
2020/12/06 09:38:25;;;;;;;32.67;19.27;;;7.10;99.90;;;;;;5037534;28;20181;-86
2020/12/06 09:40:51;;;;;;;26.17;17.03;;;7.10;99.90;;;;;;5055630;28;20258;-87
2020/12/06 09:43:17;;;;;;;28.77;18.57;;;7.10;99.90;;;;;;5054174;28;20447;-88
2020/12/06 09:45:42;;;;;;;29.03;18.07;;;7.10;99.90;;;;;;5052652;28;20175;-87
2020/12/06 09:48:09;;;;;;;28.23;19.63;;;7.10;99.90;;;;;;5042082;28;20202;-88
2020/12/06 09:50:36;;;;;;;29.43;17.00;;;7.10;99.90;;;;;;5035353;28;20709;-88
2020/12/06 09:53:01;;;;;;;27.77;19.10;;;7.20;99.90;;;;;;5033823;28;20421;-88
2020/12/06 09:55:27;;;;;;;25.83;18.40;;;7.20;99.90;;;;;;5035009;28;20913;-87
2020/12/06 09:57:53;;;;;;;27.80;19.17;;;7.40;99.90;;;;;;5041289;28;20223;-86
2020/12/06 10:00:18;;;;;;;36.53;19.47;;;7.30;99.90;;;;;;5056717;28;20181;-88
2020/12/06 10:02:44;;;;;;;28.57;19.00;;;7.30;99.90;;;;;;5056179;28;20618;-88
2020/12/06 10:05:11;;;;;;;25.83;18.23;;;7.30;99.90;;;;;;5038981;28;20181;-87
2020/12/06 10:07:37;;;;;;;28.47;17.90;;;7.40;99.90;;;;;;5056457;28;20555;-86
2020/12/06 10:10:05;;;;;;;24.97;18.00;;;7.40;99.90;;;;;;5055985;28;20470;-86
2020/12/06 10:12:31;;;;;;;27.87;19.07;;;7.40;99.90;;;;;;5036881;28;20412;-86
2020/12/06 10:14:56;;;;;;;28.70;16.60;;;7.50;99.90;;;;;;5054439;28;20494;-85
2020/12/06 10:17:22;;;;;;;33.30;21.07;;;7.50;99.90;;;;;;5036109;28;20415;-87
2020/12/06 10:19:47;;;;;;;24.97;17.80;;;7.50;99.90;;;;;;5054355;28;20170;-86
2020/12/06 10:22:13;;;;;;;30.10;19.50;;;7.60;99.90;;;;;;5054688;28;20170;-86
2020/12/06 10:24:39;;;;;;;30.63;20.10;;;7.60;99.90;;;;;;5054455;28;20219;-86
2020/12/06 10:27:04;;;;;;;31.13;19.30;;;7.70;99.90;;;;;;5051467;28;20174;-86
2020/12/06 10:29:30;;;;;;;27.17;17.63;;;7.70;99.90;;;;;;5053838;28;20224;-86
2020/12/06 10:31:58;;;;;;;27.10;17.30;;;7.80;99.90;;;;;;5036319;28;20542;-86
2020/12/06 10:34:24;;;;;;;26.67;17.30;;;7.80;99.90;;;;;;5053299;28;20189;-88
2020/12/06 10:36:51;;;;;;;27.17;18.57;;;7.90;99.90;;;;;;5053335;28;20424;-85
2020/12/06 10:39:17;;;;;;;27.93;19.17;;;7.90;99.90;;;;;;5053355;28;20420;-86
2020/12/06 10:41:45;;;;;;;28.00;18.07;;;8.00;99.90;;;;;;5054079;28;20408;-86
2020/12/06 10:44:11;;;;;;;29.10;19.40;;;8.00;99.90;;;;;;5054086;28;20507;-88
2020/12/06 10:46:36;;;;;;;26.83;18.43;;;8.00;99.90;;;;;;5033821;28;20530;-87
2020/12/06 10:49:02;;;;;;;32.50;23.10;;;8.00;99.90;;;;;;5055955;28;20598;-89
2020/12/06 10:51:28;;;;;;;31.00;18.80;;;8.00;99.90;;;;;;5054597;28;20458;-86
2020/12/06 10:53:54;;;;;;;40.00;29.13;;;8.00;99.90;;;;;;5053742;28;20185;-85
2020/12/06 10:56:19;;;;;;;30.37;18.47;;;8.00;99.90;;;;;;5037349;28;20565;-90
2020/12/06 10:58:46;;;;;;;31.17;20.10;;;7.90;99.90;;;;;;5054547;28;20169;-90
2020/12/06 11:01:11;;;;;;;27.60;18.40;;;7.90;99.90;;;;;;5054646;28;20205;-89
2020/12/06 11:03:37;;;;;;;31.30;20.40;;;7.90;99.90;;;;;;5054325;28;20412;-89
2020/12/06 11:06:02;;;;;;;28.53;21.07;;;7.90;99.90;;;;;;5034364;28;20819;-88
2020/12/06 11:08:28;;;;;;;27.43;19.67;;;7.90;99.90;;;;;;5052501;28;20459;-88
2020/12/06 11:10:54;;;;;;;33.70;22.30;;;8.00;99.90;;;;;;5033808;28;20430;-90
2020/12/06 11:13:19;;;;;;;29.50;20.83;;;8.10;99.90;;;;;;5053386;28;20459;-88
2020/12/06 11:15:45;;;;;;;27.10;17.50;;;8.10;99.90;;;;;;5018388;28;20276;-86
2020/12/06 11:18:10;;;;;;;27.50;18.70;;;8.10;99.90;;;;;;5027041;28;20315;-87
2020/12/06 11:20:36;;;;;;;26.30;19.00;;;8.10;99.90;;;;;;5053439;28;20235;-88
2020/12/06 11:23:02;;;;;;;27.80;18.67;;;8.10;99.90;;;;;;5051156;28;20188;-87
2020/12/06 11:25:28;;;;;;;25.97;17.97;;;8.10;99.90;;;;;;5030381;28;20179;-87
2020/12/06 11:27:53;;;;;;;25.60;17.30;;;8.10;99.90;;;;;;5015300;28;20771;-88
2020/12/06 11:30:19;;;;;;;25.00;18.63;;;8.10;99.90;;;;;;5046521;28;20217;-87
2020/12/06 11:32:45;;;;;;;32.43;21.20;;;8.10;99.90;;;;;;5053301;28;20252;-87
2020/12/06 11:35:10;;;;;;;29.05;21.70;;;8.10;99.90;;;;;;5051773;28;20434;-86
2020/12/06 11:37:36;;;;;;;28.07;19.70;;;8.10;99.90;;;;;;5051864;28;20166;-87
2020/12/06 11:40:02;;;;;;;27.33;17.30;;;8.10;99.90;;;;;;5015266;28;20181;-87
2020/12/06 11:42:28;;;;;;;37.90;25.00;;;8.20;99.90;;;;;;5015116;28;20171;-87
2020/12/06 11:44:53;;;;;;;27.37;19.10;;;8.10;99.90;;;;;;5050947;28;20431;-88
2020/12/06 11:47:23;;;;;;;29.07;19.07;;;8.10;99.90;;;;;;5034083;28;20518;-87
2020/12/06 11:49:49;;;;;;;26.90;18.50;;;8.10;99.90;;;;;;5051200;28;20209;-87
2020/12/06 11:52:14;;;;;;;27.97;18.30;;;8.10;99.90;;;;;;5030599;28;20511;-87
2020/12/06 11:54:40;;;;;;;27.53;18.10;;;8.10;99.90;;;;;;5051947;28;20427;-87
2020/12/06 11:57:06;;;;;;;23.80;17.20;;;8.00;99.90;;;;;;5052510;28;20161;-87
2020/12/06 11:59:31;;;;;;;29.13;18.90;;;8.00;99.90;;;;;;5033842;28;20430;-87
2020/12/06 12:01:57;;;;;;;27.23;18.87;;;7.90;99.90;;;;;;5050857;28;20416;-88
2020/12/06 12:04:23;;;;;;;30.23;20.57;;;7.90;99.90;;;;;;5051279;28;20621;-86
2020/12/06 12:06:49;;;;;;;28.93;18.57;;;7.70;99.90;;;;;;5052133;28;20170;-91
2020/12/06 12:09:15;;;;;;;26.77;17.70;;;7.60;99.90;;;;;;5030399;28;20472;-90
2020/12/06 12:11:41;;;;;;;30.60;20.50;;;7.50;99.90;;;;;;5032416;28;20984;-90
2020/12/06 12:14:07;;;;;;;33.67;20.60;;;7.50;99.90;;;;;;5052881;28;20301;-91
2020/12/06 12:16:33;;;;;;;27.33;18.07;;;7.50;99.90;;;;;;5035708;28;21015;-90
2020/12/06 12:19:05;;;;;;;32.60;20.67;;;7.50;99.90;;;;;;5053101;28;20424;-89
2020/12/06 12:21:32;;;;;;;35.38;23.73;;;7.50;99.90;;;;;;5055482;28;20461;-90
2020/12/06 12:23:58;;;;;;;32.10;20.10;;;7.60;99.90;;;;;;5056236;28;20622;-90
2020/12/06 12:26:24;;;;;;;29.47;19.27;;;7.60;99.90;;;;;;5056879;28;20428;-90
2020/12/06 12:28:49;;;;;;;27.53;19.00;;;7.70;99.90;;;;;;5038653;28;20579;-90
2020/12/06 12:31:15;;;;;;;25.77;17.83;;;7.70;99.90;;;;;;5057497;28;20177;-89
2020/12/06 12:33:40;;;;;;;28.70;18.63;;;7.70;99.90;;;;;;5056471;28;20177;-89
2020/12/06 12:36:06;;;;;;;29.07;18.63;;;7.70;99.90;;;;;;5056936;28;20640;-90